Ukkonen Alkaa: 21-06-2019 11:00 Päättyy: 22:00 Varoitus: Ukkonen Taso: Keltainen info button
suomi:
Varoitus rajusta ukonilmasta: Keskipäivästä alkaen kehittyy ukkoskuuroja, joiden yhteydessä esiintyy voimakkaita ukkospuuskia, yli 20 m/s.

svenska:
Varning för våldsamt åskväder: Från och med middagen utvecklas åskskurar med kraftiga åskbyar, över 20 m/s.

english:
Severe thunderstorm warning: From noon on severe thunderstorms can produce strong wind gusts, over 20 m/s. 

Metsäpalo Alkaa: 20-06-2019 22:52 Päättyy: 21-06-2019 22:00 Varoitus: Metsäpalo Taso: Keltainen info button
suomi:
Metsäpalovaroitus on voimassa.

svenska:
Varning för skogsbrand gäller.

english:
A forest fire warning is in force. 


Webkamera Lisätietoa Webcam


Varoitus: Ukkonen Lisätietoa

blitzortung!


Yksityisiä sääasemia lähellä:

Sääasema Juupajoki

Sääasema Orivesi

Sääasema Muurame

Sääasema Jyväskylä

Sääasema Vihtavuori


Löydät sääaseman tiedot myös:

Finland Weather Exchange

European Weather Network

Weather Underground

AWEKAS

Windy.com



Säätiedot lähimmiltä METAR asemilta

   
EFHA - Halli (Fin-Afb), Finland
Etäisyys asemalta: Kaakko 25 km
Päivitetty: 21.06.2019 02:50
Heikkoja sadekuuroja, Sade, Puolipilvistä  
Heikkoja sadekuuroja, Sade, Puolipilvistä  
   Tuuli: Eteläkaakko 2.6 m/s
Tuuli: Eteläkaakko 2.6 m/s
Lämpötila: 18°C
Kastepiste: 14°C
Kosteus: 78%
Ilmanpaine: 1008 hPa
Pilvisyys: Puolipilvistä
Näkyvyys: Enemmän kuin 10 km
Pilvitiedot: Puolipilvistä
EFHA 202350Z AUTO 15005KT 9999 -SHRA NSC 18/14 Q1008
EFJY - Jyvaskyla (Mil/Civ), Finland
Etäisyys asemalta: Koillinen 75 km
Päivitetty: 21.06.2019 02:50
Selkeää  
Selkeää  
   Tuuli: Eteläkaakko 2.6 m/s
Tuuli: Eteläkaakko 2.6 m/s
Lämpötila: 16°C
Kastepiste: 12°C
Kosteus: 77%
Ilmanpaine: 1008 hPa
Näkyvyys: Enemmän kuin 10 km
Pilvitiedot: Selkeää
EFJY 202350Z AUTO 15005KT CAVOK 16/12 Q1008
EFTP - Tampere/Pirkkala, Finland
Etäisyys asemalta: Lounas 81 km
Päivitetty: 21.06.2019 02:50
Selkeää  
Selkeää  
   Tuuli: Etelä 2.1 m/s
Tuuli: Etelä 2.1 m/s
Lämpötila: 18°C
Kastepiste: 13°C
Kosteus: 73%
Ilmanpaine: 1008 hPa
Näkyvyys: Enemmän kuin 10 km
Pilvitiedot: Selkeää
EFTP 202350Z AUTO 17004KT 090V200 CAVOK 18/13 Q1008
EFSI - Seinajoki-Ilmajoki, Finland
Etäisyys asemalta: Luode 114 km
Päivitetty: 21.06.2019 02:50
Selkeää  
Selkeää  
   Tuuli: Kaakko 3.1 m/s
Tuuli: Kaakko 3.1 m/s
Lämpötila: 19°C
Kastepiste: 13°C
Kosteus: 68%
Ilmanpaine: 1005 hPa
Näkyvyys: Enemmän kuin 10 km
Pilvitiedot: Selkeää
EFSI 202350Z AUTO 14006KT CAVOK 19/13 Q1005
EFMI - Mikkeli, Finland
Etäisyys asemalta: Itäkaakko 147 km
Päivitetty: 21.06.2019 02:50
Selkeää  
Selkeää  
   Tuuli: Kaakko 2.6 m/s
Tuuli: Kaakko 2.6 m/s
Lämpötila: 18°C
Kastepiste: 13°C
Kosteus: 73%
Ilmanpaine: 1009 hPa
Näkyvyys: Enemmän kuin 10 km
Pilvitiedot: Selkeää
EFMI 202350Z AUTO 13005KT CAVOK 18/13 Q1009
EFPO - Pori (Mil/Civ), Finland
Etäisyys asemalta: Länsilounas 154 km
Päivitetty: 21.06.2019 02:50
Vähäistä pilvisyyttä  
Vähäistä pilvisyyttä  
   Tuuli: Kaakko 3.6 m/s
Tuuli: Kaakko 3.6 m/s
Lämpötila: 18°C
Kastepiste: 15°C
Kosteus: 83%
Ilmanpaine: 1006 hPa
Pilvisyys: Vähäistä pilvisyyttä
Näkyvyys: Enemmän kuin 10 km
Pilvitiedot: Vähäistä pilvisyyttä 3018 m
EFPO 202350Z AUTO 14007KT 9999 FEW099/// 18/15 Q1006
EFUT - Utti (Fin-Afb), Finland
Etäisyys asemalta: Kaakko 180 km
Päivitetty: 21.06.2019 02:50
Selkeää  
Selkeää  
   Tuuli: Itäkaakko 2.1 m/s
Tuuli: Itäkaakko 2.1 m/s
Lämpötila: 18°C
Kastepiste: 12°C
Kosteus: 68%
Ilmanpaine: 1010 hPa
Näkyvyys: Enemmän kuin 10 km
Pilvitiedot: Selkeää
EFUT 202350Z AUTO 12004KT CAVOK 18/12 Q1010
EFVA - Vaasa, Finland
Etäisyys asemalta: Luode 180 km
Päivitetty: 21.06.2019 02:50
Sadekuuroja, Sade, Lähialueella ukkosta, Pilvistä  
Sadekuuroja, Sade, Lähialueella ukkosta, Pilvistä  
   Tuuli: Lounas 4.1 m/s
Tuuli: Lounas 4.1 m/s
Lämpötila: 17°C
Kastepiste: 15°C
Kosteus: 88%
Ilmanpaine: 1005 hPa
Pilvisyys: Pilvistä
Näkyvyys: Enemmän kuin 10 km
Pilvitiedot: Pilvistä 1372 m,
Ukkosta
EFVA 202350Z AUTO 23008KT 9999 SHRA VCTS OVC045 //////CB 17/15 Q1005
EFHK - Helsinki/Vantaa, Finland
Etäisyys asemalta: Etelä 191 km
Päivitetty: 21.06.2019 02:50
Selkeää  
Selkeää  
   Tuuli: Itäkaakko 2.1 m/s
Tuuli: Itäkaakko 2.1 m/s
Lämpötila: 17°C
Kastepiste: 14°C
Kosteus: 83%
Ilmanpaine: 1009 hPa
Näkyvyys: Enemmän kuin 10 km
Pilvitiedot: Selkeää
EFHK 202350Z 12004KT CAVOK 17/14 Q1009 NOSIG

Alkuperäinen skripti  Saratoga-weather.org Sovitettu myös templatelle  Weerstation Leuven

Laitteet joita käytämme:

Sääasema
Davis VP2

Sääasemaohjelma
Cumulus

Sääaseman palvelin
HP ProBook 6460b

Palveluntarjoaja
Radicenter

Davis VP2

Cumulus

HP ProBook 6460b

Radicenter




Flag Counter Cumulus Top Weather Sites